Time;durP1;ratioP1;P1;durP2;ratioP2;P2;SDS_P1;SDS_P2;PMS_P1;PMS_P2;Temp;Humidity;BMP_temperature;BMP_pressure;BME280_temperature;BME280_humidity;BME280_pressure;Samples;Min_cycle;Max_cycle;Signal;HPM_P1;HPM_P2
2019/04/06 00:00:45;;;;;;;37.85;20.75;;;;;;;5.37;67.64355;94015.53;;;;
2019/04/06 00:01:50;;;;;;;37.85;20.75;;;;;;;5.37;67.64355;94015.53;;;;
2019/04/06 00:02:51;;;;;;;37.85;20.75;;;;;;;5.37;67.64355;94015.53;;;;
2019/04/06 00:03:52;;;;;;;37.85;20.75;;;;;;;5.37;67.64355;94015.53;;;;
2019/04/06 00:04:53;;;;;;;37.85;20.75;;;;;;;5.37;67.64355;94015.53;;;;
2019/04/06 00:05:54;;;;;;;37.85;20.75;;;;;;;5.37;67.64355;94015.53;;;;
2019/04/06 00:06:56;;;;;;;37.85;20.75;;;;;;;5.37;67.64355;94015.53;;;;
2019/04/06 00:07:57;;;;;;;37.85;20.75;;;;;;;5.37;67.64355;94015.53;;;;
2019/04/06 00:08:58;;;;;;;37.85;20.75;;;;;;;5.37;67.64355;94015.53;;;;
2019/04/06 00:09:59;;;;;;;36.75;21.65;;;;;;;5.7;67.6123;94004.86;;;;
2019/04/06 00:11:00;;;;;;;36.75;21.65;;;;;;;5.7;67.6123;94004.86;;;;
2019/04/06 00:12:02;;;;;;;36.75;21.65;;;;;;;5.7;67.6123;94004.86;;;;
2019/04/06 00:13:03;;;;;;;36.75;21.65;;;;;;;5.7;67.6123;94004.86;;;;
2019/04/06 00:14:04;;;;;;;36.75;21.65;;;;;;;5.7;67.6123;94004.86;;;;
2019/04/06 00:15:05;;;;;;;36.75;21.65;;;;;;;5.7;67.6123;94004.86;;;;
2019/04/06 00:16:06;;;;;;;36.75;21.65;;;;;;;5.7;67.6123;94004.86;;;;
2019/04/06 00:17:07;;;;;;;36.75;21.65;;;;;;;5.7;67.6123;94004.86;;;;
2019/04/06 00:18:08;;;;;;;36.75;21.65;;;;;;;5.7;67.6123;94004.86;;;;
2019/04/06 00:19:10;;;;;;;36.75;21.65;;;;;;;5.7;67.6123;94004.86;;;;
2019/04/06 00:20:11;;;;;;;33.59999;21.15;;;;;;;5.73;67.75488;94010.28;;;;
2019/04/06 00:21:12;;;;;;;33.59999;21.15;;;;;;;5.73;67.75488;94010.28;;;;
2019/04/06 00:22:13;;;;;;;33.59999;21.15;;;;;;;5.73;67.75488;94010.28;;;;
2019/04/06 00:23:14;;;;;;;33.59999;21.15;;;;;;;5.73;67.75488;94010.28;;;;
2019/04/06 00:24:15;;;;;;;33.59999;21.15;;;;;;;5.73;67.75488;94010.28;;;;
2019/04/06 00:25:17;;;;;;;33.59999;21.15;;;;;;;5.73;67.75488;94010.28;;;;
2019/04/06 00:26:18;;;;;;;33.59999;21.15;;;;;;;5.73;67.75488;94010.28;;;;
2019/04/06 00:27:19;;;;;;;33.59999;21.15;;;;;;;5.73;67.75488;94010.28;;;;
2019/04/06 00:28:20;;;;;;;33.59999;21.15;;;;;;;5.73;67.75488;94010.28;;;;
2019/04/06 00:29:21;;;;;;;33.59999;21.15;;;;;;;5.73;67.75488;94010.28;;;;
2019/04/06 00:30:23;;;;;;;38.05;22.2;;;;;;;5.84;68.07813;93994.33;;;;
2019/04/06 00:31:33;;;;;;;38.05;22.2;;;;;;;5.84;68.07813;93994.33;;;;
2019/04/06 00:32:39;;;;;;;38.05;22.2;;;;;;;5.84;68.07813;93994.33;;;;
2019/04/06 00:33:40;;;;;;;38.05;22.2;;;;;;;5.84;68.07813;93994.33;;;;
2019/04/06 00:34:41;;;;;;;38.05;22.2;;;;;;;5.84;68.07813;93994.33;;;;
2019/04/06 00:35:42;;;;;;;38.05;22.2;;;;;;;5.84;68.07813;93994.33;;;;
2019/04/06 00:36:44;;;;;;;38.05;22.2;;;;;;;5.84;68.07813;93994.33;;;;
2019/04/06 00:37:45;;;;;;;38.05;22.2;;;;;;;5.84;68.07813;93994.33;;;;
2019/04/06 00:38:46;;;;;;;38.05;22.2;;;;;;;5.84;68.07813;93994.33;;;;
2019/04/06 00:39:47;;;;;;;38.05;22.2;;;;;;;5.84;68.07813;93994.33;;;;
2019/04/06 00:40:48;;;;;;;39.05;22.05;;;;;;;5.87;68.09375;94001.36;;;;
2019/04/06 00:41:49;;;;;;;39.05;22.05;;;;;;;5.87;68.09375;94001.36;;;;
2019/04/06 00:42:51;;;;;;;39.05;22.05;;;;;;;5.87;68.09375;94001.36;;;;
2019/04/06 00:43:52;;;;;;;39.05;22.05;;;;;;;5.87;68.09375;94001.36;;;;
2019/04/06 00:44:53;;;;;;;39.05;22.05;;;;;;;5.87;68.09375;94001.36;;;;
2019/04/06 00:45:54;;;;;;;39.05;22.05;;;;;;;5.87;68.09375;94001.36;;;;
2019/04/06 00:46:55;;;;;;;39.05;22.05;;;;;;;5.87;68.09375;94001.36;;;;
2019/04/06 00:47:56;;;;;;;39.05;22.05;;;;;;;5.87;68.09375;94001.36;;;;
2019/04/06 00:48:57;;;;;;;39.05;22.05;;;;;;;5.87;68.09375;94001.36;;;;
2019/04/06 00:49:59;;;;;;;39.05;22.05;;;;;;;5.87;68.09375;94001.36;;;;
2019/04/06 00:51:00;;;;;;;39.05;22.05;;;;;;;5.87;68.09375;94001.36;;;;
2019/04/06 00:52:01;;;;;;;36.60001;22.1;;;;;;;5.99;68.18555;94006.28;;;;
2019/04/06 00:53:02;;;;;;;36.60001;22.1;;;;;;;5.99;68.18555;94006.28;;;;
2019/04/06 00:54:03;;;;;;;36.60001;22.1;;;;;;;5.99;68.18555;94006.28;;;;
2019/04/06 00:55:04;;;;;;;36.60001;22.1;;;;;;;5.99;68.18555;94006.28;;;;
2019/04/06 00:56:06;;;;;;;36.60001;22.1;;;;;;;5.99;68.18555;94006.28;;;;
2019/04/06 00:57:07;;;;;;;36.60001;22.1;;;;;;;5.99;68.18555;94006.28;;;;
2019/04/06 00:58:08;;;;;;;36.60001;22.1;;;;;;;5.99;68.18555;94006.28;;;;
2019/04/06 00:59:09;;;;;;;36.60001;22.1;;;;;;;5.99;68.18555;94006.28;;;;
2019/04/06 01:00:10;;;;;;;36.60001;22.1;;;;;;;5.99;68.18555;94006.28;;;;
2019/04/06 01:01:11;;;;;;;36.60001;22.1;;;;;;;5.99;68.18555;94006.28;;;;
2019/04/06 01:02:13;;;;;;;40.6;23.45;;;;;;;5.99;68.3125;94000.92;;;;
2019/04/06 01:03:14;;;;;;;40.6;23.45;;;;;;;5.99;68.3125;94000.92;;;;
2019/04/06 01:04:15;;;;;;;40.6;23.45;;;;;;;5.99;68.3125;94000.92;;;;
2019/04/06 01:05:16;;;;;;;40.6;23.45;;;;;;;5.99;68.3125;94000.92;;;;
2019/04/06 01:06:17;;;;;;;40.6;23.45;;;;;;;5.99;68.3125;94000.92;;;;
2019/04/06 01:07:19;;;;;;;40.6;23.45;;;;;;;5.99;68.3125;94000.92;;;;
2019/04/06 01:08:20;;;;;;;40.6;23.45;;;;;;;5.99;68.3125;94000.92;;;;
2019/04/06 01:09:21;;;;;;;40.6;23.45;;;;;;;5.99;68.3125;94000.92;;;;
2019/04/06 01:10:22;;;;;;;40.6;23.45;;;;;;;5.99;68.3125;94000.92;;;;
2019/04/06 01:11:23;;;;;;;40.6;23.45;;;;;;;5.99;68.3125;94000.92;;;;
2019/04/06 01:12:25;;;;;;;40.6;23.45;;;;;;;5.99;68.3125;94000.92;;;;
2019/04/06 01:13:26;;;;;;;44.05;24.65;;;;;;;5.97;68.42773;94004.22;;;;
2019/04/06 01:14:27;;;;;;;44.05;24.65;;;;;;;5.97;68.42773;94004.22;;;;
2019/04/06 01:15:28;;;;;;;44.05;24.65;;;;;;;5.97;68.42773;94004.22;;;;
2019/04/06 01:16:29;;;;;;;44.05;24.65;;;;;;;5.97;68.42773;94004.22;;;;
2019/04/06 01:17:31;;;;;;;44.05;24.65;;;;;;;5.97;68.42773;94004.22;;;;
2019/04/06 01:18:32;;;;;;;44.05;24.65;;;;;;;5.97;68.42773;94004.22;;;;
2019/04/06 01:19:33;;;;;;;44.05;24.65;;;;;;;5.97;68.42773;94004.22;;;;
2019/04/06 01:20:34;;;;;;;44.05;24.65;;;;;;;5.97;68.42773;94004.22;;;;
2019/04/06 01:21:35;;;;;;;44.05;24.65;;;;;;;5.97;68.42773;94004.22;;;;
2019/04/06 01:22:37;;;;;;;44.05;24.65;;;;;;;5.97;68.42773;94004.22;;;;
2019/04/06 01:23:38;;;;;;;42.9;24.79999;;;;;;;5.78;68.63086;94007.19;;;;
2019/04/06 01:24:39;;;;;;;42.9;24.79999;;;;;;;5.78;68.63086;94007.19;;;;
2019/04/06 01:25:40;;;;;;;42.9;24.79999;;;;;;;5.78;68.63086;94007.19;;;;
2019/04/06 01:26:41;;;;;;;42.9;24.79999;;;;;;;5.78;68.63086;94007.19;;;;
2019/04/06 01:27:43;;;;;;;42.9;24.79999;;;;;;;5.78;68.63086;94007.19;;;;
2019/04/06 01:28:44;;;;;;;42.9;24.79999;;;;;;;5.78;68.63086;94007.19;;;;
2019/04/06 01:29:45;;;;;;;42.9;24.79999;;;;;;;5.78;68.63086;94007.19;;;;
2019/04/06 01:30:47;;;;;;;42.9;24.79999;;;;;;;5.78;68.63086;94007.19;;;;
2019/04/06 01:31:48;;;;;;;42.9;24.79999;;;;;;;5.78;68.63086;94007.19;;;;
2019/04/06 01:32:49;;;;;;;42.9;24.79999;;;;;;;5.78;68.63086;94007.19;;;;
2019/04/06 01:33:50;;;;;;;42.9;24.79999;;;;;;;5.78;68.63086;94007.19;;;;
2019/04/06 01:34:51;;;;;;;42.9;24.79999;;;;;;;5.78;68.63086;94007.19;;;;
2019/04/06 01:35:53;;;;;;;42.9;24.79999;;;;;;;5.78;68.63086;94007.19;;;;
2019/04/06 01:36:54;;;;;;;42.9;24.79999;;;;;;;5.78;68.63086;94007.19;;;;
2019/04/06 01:37:55;;;;;;;42.9;24.79999;;;;;;;5.78;68.63086;94007.19;;;;
2019/04/06 01:38:56;;;;;;;42.9;24.79999;;;;;;;5.78;68.63086;94007.19;;;;
2019/04/06 01:39:57;;;;;;;42.9;24.79999;;;;;;;5.78;68.63086;94007.19;;;;
2019/04/06 01:40:59;;;;;;;42.9;24.79999;;;;;;;5.78;68.63086;94007.19;;;;
2019/04/06 01:42:00;;;;;;;42.9;24.79999;;;;;;;5.78;68.63086;94007.19;;;;
2019/04/06 01:43:01;;;;;;;42.9;24.79999;;;;;;;5.78;68.63086;94007.19;;;;
2019/04/06 01:44:02;;;;;;;42.9;24.79999;;;;;;;5.78;68.63086;94007.19;;;;
2019/04/06 01:45:03;;;;;;;42.55;24.2;;;;;;;5.15;69.32617;93986.72;;;;
2019/04/06 01:46:05;;;;;;;42.55;24.2;;;;;;;5.15;69.32617;93986.72;;;;
2019/04/06 01:47:06;;;;;;;42.55;24.2;;;;;;;5.15;69.32617;93986.72;;;;
2019/04/06 01:48:07;;;;;;;42.55;24.2;;;;;;;5.15;69.32617;93986.72;;;;
2019/04/06 01:49:08;;;;;;;42.55;24.2;;;;;;;5.15;69.32617;93986.72;;;;
2019/04/06 01:50:10;;;;;;;42.55;24.2;;;;;;;5.15;69.32617;93986.72;;;;
2019/04/06 01:51:11;;;;;;;42.55;24.2;;;;;;;5.15;69.32617;93986.72;;;;
2019/04/06 01:52:12;;;;;;;42.55;24.2;;;;;;;5.15;69.32617;93986.72;;;;
2019/04/06 01:53:13;;;;;;;42.55;24.2;;;;;;;5.15;69.32617;93986.72;;;;
2019/04/06 01:54:14;;;;;;;42.55;24.2;;;;;;;5.15;69.32617;93986.72;;;;
2019/04/06 01:55:16;;;;;;;44.35;23.8;;;;;;;4.99;69.87012;93978.59;;;;
2019/04/06 01:56:17;;;;;;;44.35;23.8;;;;;;;4.99;69.87012;93978.59;;;;
2019/04/06 01:57:18;;;;;;;44.35;23.8;;;;;;;4.99;69.87012;93978.59;;;;
2019/04/06 01:58:19;;;;;;;44.35;23.8;;;;;;;4.99;69.87012;93978.59;;;;
2019/04/06 01:59:20;;;;;;;44.35;23.8;;;;;;;4.99;69.87012;93978.59;;;;
2019/04/06 02:00:22;;;;;;;44.35;23.8;;;;;;;4.99;69.87012;93978.59;;;;
2019/04/06 02:01:28;;;;;;;44.35;23.8;;;;;;;4.99;69.87012;93978.59;;;;
2019/04/06 02:02:32;;;;;;;44.35;23.8;;;;;;;4.99;69.87012;93978.59;;;;
2019/04/06 02:03:33;;;;;;;44.35;23.8;;;;;;;4.99;69.87012;93978.59;;;;
2019/04/06 02:04:34;;;;;;;44.35;23.8;;;;;;;4.99;69.87012;93978.59;;;;
2019/04/06 02:05:36;;;;;;;44.35;23.8;;;;;;;4.99;69.87012;93978.59;;;;
2019/04/06 02:06:37;;;;;;;44.35;23.8;;;;;;;4.99;69.87012;93978.59;;;;
2019/04/06 02:07:38;;;;;;;44.35;23.8;;;;;;;4.99;69.87012;93978.59;;;;
2019/04/06 02:08:40;;;;;;;44.35;23.8;;;;;;;4.99;69.87012;93978.59;;;;
2019/04/06 02:09:41;;;;;;;44.35;23.8;;;;;;;4.99;69.87012;93978.59;;;;
2019/04/06 02:10:42;;;;;;;44.35;23.8;;;;;;;4.99;69.87012;93978.59;;;;
2019/04/06 02:11:43;;;;;;;44.35;23.8;;;;;;;4.99;69.87012;93978.59;;;;
2019/04/06 02:12:45;;;;;;;44.35;23.8;;;;;;;4.99;69.87012;93978.59;;;;
2019/04/06 02:13:46;;;;;;;44.35;23.8;;;;;;;4.99;69.87012;93978.59;;;;
2019/04/06 02:14:47;;;;;;;44.35;23.8;;;;;;;4.99;69.87012;93978.59;;;;
2019/04/06 02:15:48;;;;;;;44.35;23.8;;;;;;;4.99;69.87012;93978.59;;;;
2019/04/06 02:16:49;;;;;;;39.7;21.8;;;;;;;5.06;70.28223;93984.63;;;;
2019/04/06 02:17:50;;;;;;;39.7;21.8;;;;;;;5.06;70.28223;93984.63;;;;
2019/04/06 02:18:52;;;;;;;39.7;21.8;;;;;;;5.06;70.28223;93984.63;;;;
2019/04/06 02:19:53;;;;;;;39.7;21.8;;;;;;;5.06;70.28223;93984.63;;;;
2019/04/06 02:20:54;;;;;;;39.7;21.8;;;;;;;5.06;70.28223;93984.63;;;;
2019/04/06 02:21:55;;;;;;;39.7;21.8;;;;;;;5.06;70.28223;93984.63;;;;
2019/04/06 02:22:56;;;;;;;39.7;21.8;;;;;;;5.06;70.28223;93984.63;;;;
2019/04/06 02:23:58;;;;;;;39.7;21.8;;;;;;;5.06;70.28223;93984.63;;;;
2019/04/06 02:24:59;;;;;;;39.7;21.8;;;;;;;5.06;70.28223;93984.63;;;;
2019/04/06 02:26:00;;;;;;;39.7;21.8;;;;;;;5.06;70.28223;93984.63;;;;
2019/04/06 02:27:01;;;;;;;41.3;23.25;;;;;;;5.15;70.25684;93984.05;;;;
2019/04/06 02:28:03;;;;;;;41.3;23.25;;;;;;;5.15;70.25684;93984.05;;;;
2019/04/06 02:29:04;;;;;;;41.3;23.25;;;;;;;5.15;70.25684;93984.05;;;;
2019/04/06 02:30:14;;;;;;;41.3;23.25;;;;;;;5.15;70.25684;93984.05;;;;
2019/04/06 02:31:21;;;;;;;41.3;23.25;;;;;;;5.15;70.25684;93984.05;;;;
2019/04/06 02:32:32;;;;;;;41.3;23.25;;;;;;;5.15;70.25684;93984.05;;;;
2019/04/06 02:34:13;;;;;;;41.3;23.25;;;;;;;5.15;70.25684;93984.05;;;;
2019/04/06 02:35:28;;;;;;;41.3;23.25;;;;;;;5.15;70.25684;93984.05;;;;
2019/04/06 02:37:45;;;;;;;41.3;23.25;;;;;;;5.15;70.25684;93984.05;;;;
2019/04/06 02:38:56;;;;;;;45.2;24.75;;;;;;;5.27;70.16992;93978.14;;;;
2019/04/06 02:40:35;;;;;;;45.2;24.75;;;;;;;5.27;70.16992;93978.14;;;;
2019/04/06 02:41:45;;;;;;;45.2;24.75;;;;;;;5.27;70.16992;93978.14;;;;
2019/04/06 02:42:50;;;;;;;45.2;24.75;;;;;;;5.27;70.16992;93978.14;;;;
2019/04/06 02:43:51;;;;;;;45.2;24.75;;;;;;;5.27;70.16992;93978.14;;;;
2019/04/06 02:44:52;;;;;;;45.2;24.75;;;;;;;5.27;70.16992;93978.14;;;;
2019/04/06 02:45:53;;;;;;;45.2;24.75;;;;;;;5.27;70.16992;93978.14;;;;
2019/04/06 02:46:55;;;;;;;45.2;24.75;;;;;;;5.27;70.16992;93978.14;;;;
2019/04/06 02:47:56;;;;;;;45.2;24.75;;;;;;;5.27;70.16992;93978.14;;;;
2019/04/06 02:48:57;;;;;;;44.2;23.75;;;;;;;5.3;70.25879;93973.68;;;;
2019/04/06 02:49:58;;;;;;;44.2;23.75;;;;;;;5.3;70.25879;93973.68;;;;
2019/04/06 02:51:00;;;;;;;44.2;23.75;;;;;;;5.3;70.25879;93973.68;;;;
2019/04/06 02:52:01;;;;;;;44.2;23.75;;;;;;;5.3;70.25879;93973.68;;;;
2019/04/06 02:53:02;;;;;;;44.2;23.75;;;;;;;5.3;70.25879;93973.68;;;;
2019/04/06 02:54:03;;;;;;;44.2;23.75;;;;;;;5.3;70.25879;93973.68;;;;
2019/04/06 02:55:04;;;;;;;44.2;23.75;;;;;;;5.3;70.25879;93973.68;;;;
2019/04/06 02:56:05;;;;;;;44.2;23.75;;;;;;;5.3;70.25879;93973.68;;;;
2019/04/06 02:57:07;;;;;;;44.2;23.75;;;;;;;5.3;70.25879;93973.68;;;;
2019/04/06 02:58:08;;;;;;;44.2;23.75;;;;;;;5.3;70.25879;93973.68;;;;
2019/04/06 02:59:09;;;;;;;39.8;22.6;;;;;;;5.2;70.55078;93981.47;;;;
2019/04/06 03:00:10;;;;;;;39.8;22.6;;;;;;;5.2;70.55078;93981.47;;;;
2019/04/06 03:01:11;;;;;;;39.8;22.6;;;;;;;5.2;70.55078;93981.47;;;;
2019/04/06 03:02:12;;;;;;;39.8;22.6;;;;;;;5.2;70.55078;93981.47;;;;
2019/04/06 03:03:13;;;;;;;39.8;22.6;;;;;;;5.2;70.55078;93981.47;;;;
2019/04/06 03:04:15;;;;;;;39.8;22.6;;;;;;;5.2;70.55078;93981.47;;;;
2019/04/06 03:05:16;;;;;;;39.8;22.6;;;;;;;5.2;70.55078;93981.47;;;;
2019/04/06 03:06:17;;;;;;;39.8;22.6;;;;;;;5.2;70.55078;93981.47;;;;
2019/04/06 03:07:18;;;;;;;39.8;22.6;;;;;;;5.2;70.55078;93981.47;;;;
2019/04/06 03:08:19;;;;;;;39.8;22.6;;;;;;;5.2;70.55078;93981.47;;;;
2019/04/06 03:09:20;;;;;;;39.8;22.6;;;;;;;5.2;70.55078;93981.47;;;;
2019/04/06 03:10:21;;;;;;;39.55;22.35;;;;;;;5.16;70.70117;93973.24;;;;
2019/04/06 03:11:23;;;;;;;39.55;22.35;;;;;;;5.16;70.70117;93973.24;;;;
2019/04/06 03:12:24;;;;;;;39.55;22.35;;;;;;;5.16;70.70117;93973.24;;;;
2019/04/06 03:13:25;;;;;;;39.55;22.35;;;;;;;5.16;70.70117;93973.24;;;;
2019/04/06 03:14:26;;;;;;;39.55;22.35;;;;;;;5.16;70.70117;93973.24;;;;
2019/04/06 03:15:27;;;;;;;39.55;22.35;;;;;;;5.16;70.70117;93973.24;;;;
2019/04/06 03:16:29;;;;;;;39.55;22.35;;;;;;;5.16;70.70117;93973.24;;;;
2019/04/06 03:17:30;;;;;;;39.55;22.35;;;;;;;5.16;70.70117;93973.24;;;;
2019/04/06 03:18:31;;;;;;;39.55;22.35;;;;;;;5.16;70.70117;93973.24;;;;
2019/04/06 03:19:32;;;;;;;39.55;22.35;;;;;;;5.16;70.70117;93973.24;;;;
2019/04/06 03:20:33;;;;;;;43.20001;24.45;;;;;;;5.25;70.75879;93965.11;;;;
2019/04/06 03:21:34;;;;;;;43.20001;24.45;;;;;;;5.25;70.75879;93965.11;;;;
2019/04/06 03:22:35;;;;;;;43.20001;24.45;;;;;;;5.25;70.75879;93965.11;;;;
2019/04/06 03:23:37;;;;;;;43.20001;24.45;;;;;;;5.25;70.75879;93965.11;;;;
2019/04/06 03:24:38;;;;;;;43.20001;24.45;;;;;;;5.25;70.75879;93965.11;;;;
2019/04/06 03:25:39;;;;;;;43.20001;24.45;;;;;;;5.25;70.75879;93965.11;;;;
2019/04/06 03:26:40;;;;;;;43.20001;24.45;;;;;;;5.25;70.75879;93965.11;;;;
2019/04/06 03:27:41;;;;;;;43.20001;24.45;;;;;;;5.25;70.75879;93965.11;;;;
2019/04/06 03:28:42;;;;;;;43.20001;24.45;;;;;;;5.25;70.75879;93965.11;;;;
2019/04/06 03:29:44;;;;;;;43.20001;24.45;;;;;;;5.25;70.75879;93965.11;;;;
2019/04/06 03:30:45;;;;;;;46.8;24.1;;;;;;;5.17;70.87207;93962.81;;;;
2019/04/06 03:31:46;;;;;;;46.8;24.1;;;;;;;5.17;70.87207;93962.81;;;;
2019/04/06 03:32:47;;;;;;;46.8;24.1;;;;;;;5.17;70.87207;93962.81;;;;
2019/04/06 03:33:48;;;;;;;46.8;24.1;;;;;;;5.17;70.87207;93962.81;;;;
2019/04/06 03:34:49;;;;;;;46.8;24.1;;;;;;;5.17;70.87207;93962.81;;;;
2019/04/06 03:35:50;;;;;;;46.8;24.1;;;;;;;5.17;70.87207;93962.81;;;;
2019/04/06 03:36:52;;;;;;;46.8;24.1;;;;;;;5.17;70.87207;93962.81;;;;
2019/04/06 03:37:53;;;;;;;46.8;24.1;;;;;;;5.17;70.87207;93962.81;;;;
2019/04/06 03:38:54;;;;;;;46.8;24.1;;;;;;;5.17;70.87207;93962.81;;;;
2019/04/06 03:39:55;;;;;;;46.8;24.1;;;;;;;5.17;70.87207;93962.81;;;;
2019/04/06 03:40:56;;;;;;;46.8;24.1;;;;;;;5.17;70.87207;93962.81;;;;
2019/04/06 03:41:57;;;;;;;44.9;25.2;;;;;;;5.23;71.06152;93963.73;;;;
2019/04/06 03:42:59;;;;;;;44.9;25.2;;;;;;;5.23;71.06152;93963.73;;;;
2019/04/06 03:44:00;;;;;;;44.9;25.2;;;;;;;5.23;71.06152;93963.73;;;;
2019/04/06 03:45:01;;;;;;;44.9;25.2;;;;;;;5.23;71.06152;93963.73;;;;
2019/04/06 03:46:02;;;;;;;44.9;25.2;;;;;;;5.23;71.06152;93963.73;;;;
2019/04/06 03:47:04;;;;;;;44.9;25.2;;;;;;;5.23;71.06152;93963.73;;;;
2019/04/06 03:48:05;;;;;;;44.9;25.2;;;;;;;5.23;71.06152;93963.73;;;;
2019/04/06 03:49:07;;;;;;;44.9;25.2;;;;;;;5.23;71.06152;93963.73;;;;
2019/04/06 03:50:08;;;;;;;44.9;25.2;;;;;;;5.23;71.06152;93963.73;;;;
2019/04/06 03:51:09;;;;;;;44.9;25.2;;;;;;;5.23;71.06152;93963.73;;;;
2019/04/06 03:52:10;;;;;;;45.00001;24.75;;;;;;;5.27;71.12207;93965.31;;;;
2019/04/06 03:53:11;;;;;;;45.00001;24.75;;;;;;;5.27;71.12207;93965.31;;;;
2019/04/06 03:54:12;;;;;;;45.00001;24.75;;;;;;;5.27;71.12207;93965.31;;;;
2019/04/06 03:55:14;;;;;;;45.00001;24.75;;;;;;;5.27;71.12207;93965.31;;;;
2019/04/06 03:56:15;;;;;;;45.00001;24.75;;;;;;;5.27;71.12207;93965.31;;;;
2019/04/06 03:57:16;;;;;;;45.00001;24.75;;;;;;;5.27;71.12207;93965.31;;;;
2019/04/06 03:58:17;;;;;;;45.00001;24.75;;;;;;;5.27;71.12207;93965.31;;;;
2019/04/06 03:59:18;;;;;;;45.00001;24.75;;;;;;;5.27;71.12207;93965.31;;;;
2019/04/06 04:00:19;;;;;;;45.00001;24.75;;;;;;;5.27;71.12207;93965.31;;;;
2019/04/06 04:01:20;;;;;;;45.00001;24.75;;;;;;;5.27;71.12207;93965.31;;;;
2019/04/06 04:02:22;;;;;;;47.05;25.05;;;;;;;5.38;71.25586;93965.41;;;;
2019/04/06 04:03:23;;;;;;;47.05;25.05;;;;;;;5.38;71.25586;93965.41;;;;
2019/04/06 04:04:24;;;;;;;47.05;25.05;;;;;;;5.38;71.25586;93965.41;;;;
2019/04/06 04:05:25;;;;;;;47.05;25.05;;;;;;;5.38;71.25586;93965.41;;;;
2019/04/06 04:06:26;;;;;;;47.05;25.05;;;;;;;5.38;71.25586;93965.41;;;;
2019/04/06 04:07:27;;;;;;;47.05;25.05;;;;;;;5.38;71.25586;93965.41;;;;
2019/04/06 04:08:28;;;;;;;47.05;25.05;;;;;;;5.38;71.25586;93965.41;;;;
2019/04/06 04:09:30;;;;;;;47.05;25.05;;;;;;;5.38;71.25586;93965.41;;;;
2019/04/06 04:10:31;;;;;;;47.05;25.05;;;;;;;5.38;71.25586;93965.41;;;;
2019/04/06 04:11:34;;;;;;;47.05;25.05;;;;;;;5.38;71.25586;93965.41;;;;
2019/04/06 04:12:35;;;;;;;47.05;25.05;;;;;;;5.38;71.25586;93965.41;;;;
2019/04/06 04:13:36;;;;;;;47.05;25.05;;;;;;;5.38;71.25586;93965.41;;;;
2019/04/06 04:14:37;;;;;;;47.05;25.05;;;;;;;5.38;71.25586;93965.41;;;;
2019/04/06 04:15:38;;;;;;;47.05;25.05;;;;;;;5.38;71.25586;93965.41;;;;
2019/04/06 04:16:39;;;;;;;47.05;25.05;;;;;;;5.38;71.25586;93965.41;;;;
2019/04/06 04:17:40;;;;;;;47.05;25.05;;;;;;;5.38;71.25586;93965.41;;;;
2019/04/06 04:18:42;;;;;;;47.05;25.05;;;;;;;5.38;71.25586;93965.41;;;;
2019/04/06 04:19:43;;;;;;;47.05;25.05;;;;;;;5.38;71.25586;93965.41;;;;
2019/04/06 04:20:44;;;;;;;47.05;25.05;;;;;;;5.38;71.25586;93965.41;;;;
2019/04/06 04:21:45;;;;;;;47.05;25.05;;;;;;;5.38;71.25586;93965.41;;;;
2019/04/06 04:22:46;;;;;;;47.05;25.05;;;;;;;5.38;71.25586;93965.41;;;;
2019/04/06 04:23:47;;;;;;;47.05;25.05;;;;;;;5.38;71.25586;93965.41;;;;
2019/04/06 04:24:49;;;;;;;47.35;24.55;;;;;;;5.62;71.11621;93966.96;;;;
2019/04/06 04:25:50;;;;;;;47.35;24.55;;;;;;;5.62;71.11621;93966.96;;;;
2019/04/06 04:26:51;;;;;;;47.35;24.55;;;;;;;5.62;71.11621;93966.96;;;;
2019/04/06 04:27:52;;;;;;;47.35;24.55;;;;;;;5.62;71.11621;93966.96;;;;
2019/04/06 04:28:54;;;;;;;47.35;24.55;;;;;;;5.62;71.11621;93966.96;;;;
2019/04/06 04:29:55;;;;;;;47.35;24.55;;;;;;;5.62;71.11621;93966.96;;;;
2019/04/06 04:30:56;;;;;;;47.35;24.55;;;;;;;5.62;71.11621;93966.96;;;;
2019/04/06 04:31:57;;;;;;;47.35;24.55;;;;;;;5.62;71.11621;93966.96;;;;
2019/04/06 04:32:58;;;;;;;47.35;24.55;;;;;;;5.62;71.11621;93966.96;;;;
2019/04/06 04:33:59;;;;;;;47.35;24.55;;;;;;;5.62;71.11621;93966.96;;;;
2019/04/06 04:35:01;;;;;;;46.1;26.3;;;;;;;5.63;71.27637;93962.28;;;;
2019/04/06 04:36:02;;;;;;;46.1;26.3;;;;;;;5.63;71.27637;93962.28;;;;
2019/04/06 04:37:03;;;;;;;46.1;26.3;;;;;;;5.63;71.27637;93962.28;;;;
2019/04/06 04:38:04;;;;;;;46.1;26.3;;;;;;;5.63;71.27637;93962.28;;;;
2019/04/06 04:39:05;;;;;;;46.1;26.3;;;;;;;5.63;71.27637;93962.28;;;;
2019/04/06 04:40:07;;;;;;;46.1;26.3;;;;;;;5.63;71.27637;93962.28;;;;
2019/04/06 04:41:08;;;;;;;46.1;26.3;;;;;;;5.63;71.27637;93962.28;;;;
2019/04/06 04:42:09;;;;;;;46.1;26.3;;;;;;;5.63;71.27637;93962.28;;;;
2019/04/06 04:43:10;;;;;;;46.1;26.3;;;;;;;5.63;71.27637;93962.28;;;;
2019/04/06 04:44:11;;;;;;;46.1;26.3;;;;;;;5.63;71.27637;93962.28;;;;
2019/04/06 04:45:13;;;;;;;46.1;26.3;;;;;;;5.63;71.27637;93962.28;;;;
2019/04/06 04:46:14;;;;;;;46.1;26.3;;;;;;;5.63;71.27637;93962.28;;;;
2019/04/06 04:47:15;;;;;;;46.1;26.3;;;;;;;5.63;71.27637;93962.28;;;;
2019/04/06 04:48:16;;;;;;;46.1;26.3;;;;;;;5.63;71.27637;93962.28;;;;
2019/04/06 04:49:17;;;;;;;46.1;26.3;;;;;;;5.63;71.27637;93962.28;;;;
2019/04/06 04:50:18;;;;;;;46.1;26.3;;;;;;;5.63;71.27637;93962.28;;;;
2019/04/06 04:51:20;;;;;;;46.1;26.3;;;;;;;5.63;71.27637;93962.28;;;;
2019/04/06 04:52:21;;;;;;;46.1;26.3;;;;;;;5.63;71.27637;93962.28;;;;
2019/04/06 04:53:22;;;;;;;46.1;26.3;;;;;;;5.63;71.27637;93962.28;;;;
2019/04/06 04:54:23;;;;;;;46.1;26.3;;;;;;;5.63;71.27637;93962.28;;;;
2019/04/06 04:55:24;;;;;;;46.1;26.3;;;;;;;5.63;71.27637;93962.28;;;;
2019/04/06 04:56:25;;;;;;;47.9;26.55;;;;;;;5.87;71.29395;93990.65;;;;
2019/04/06 04:57:27;;;;;;;47.9;26.55;;;;;;;5.87;71.29395;93990.65;;;;
2019/04/06 04:58:28;;;;;;;47.9;26.55;;;;;;;5.87;71.29395;93990.65;;;;
2019/04/06 04:59:29;;;;;;;47.9;26.55;;;;;;;5.87;71.29395;93990.65;;;;
2019/04/06 05:00:30;;;;;;;47.9;26.55;;;;;;;5.87;71.29395;93990.65;;;;
2019/04/06 05:01:31;;;;;;;47.9;26.55;;;;;;;5.87;71.29395;93990.65;;;;
2019/04/06 05:02:32;;;;;;;47.9;26.55;;;;;;;5.87;71.29395;93990.65;;;;
2019/04/06 05:03:34;;;;;;;47.9;26.55;;;;;;;5.87;71.29395;93990.65;;;;
2019/04/06 05:04:35;;;;;;;47.9;26.55;;;;;;;5.87;71.29395;93990.65;;;;
2019/04/06 05:05:36;;;;;;;47.9;26.55;;;;;;;5.87;71.29395;93990.65;;;;
2019/04/06 05:06:37;;;;;;;51.8;27.85;;;;;;;6.01;71.49707;93996.14;;;;
2019/04/06 05:07:38;;;;;;;51.8;27.85;;;;;;;6.01;71.49707;93996.14;;;;
2019/04/06 05:08:39;;;;;;;51.8;27.85;;;;;;;6.01;71.49707;93996.14;;;;
2019/04/06 05:09:40;;;;;;;51.8;27.85;;;;;;;6.01;71.49707;93996.14;;;;
2019/04/06 05:10:42;;;;;;;51.8;27.85;;;;;;;6.01;71.49707;93996.14;;;;
2019/04/06 05:11:43;;;;;;;51.8;27.85;;;;;;;6.01;71.49707;93996.14;;;;
2019/04/06 05:12:44;;;;;;;51.8;27.85;;;;;;;6.01;71.49707;93996.14;;;;
2019/04/06 05:13:45;;;;;;;51.8;27.85;;;;;;;6.01;71.49707;93996.14;;;;
2019/04/06 05:14:46;;;;;;;51.8;27.85;;;;;;;6.01;71.49707;93996.14;;;;
2019/04/06 05:16:04;;;;;;;51.8;27.85;;;;;;;6.01;71.49707;93996.14;;;;
2019/04/06 05:17:09;;;;;;;53.4;28.84999;;;;;;;6.12;71.52637;93993.91;;;;
2019/04/06 05:18:11;;;;;;;53.4;28.84999;;;;;;;6.12;71.52637;93993.91;;;;
2019/04/06 05:19:12;;;;;;;53.4;28.84999;;;;;;;6.12;71.52637;93993.91;;;;
2019/04/06 05:20:13;;;;;;;53.4;28.84999;;;;;;;6.12;71.52637;93993.91;;;;
2019/04/06 05:21:14;;;;;;;53.4;28.84999;;;;;;;6.12;71.52637;93993.91;;;;
2019/04/06 05:22:15;;;;;;;53.4;28.84999;;;;;;;6.12;71.52637;93993.91;;;;
2019/04/06 05:23:16;;;;;;;53.4;28.84999;;;;;;;6.12;71.52637;93993.91;;;;
2019/04/06 05:24:18;;;;;;;53.4;28.84999;;;;;;;6.12;71.52637;93993.91;;;;
2019/04/06 05:25:19;;;;;;;53.4;28.84999;;;;;;;6.12;71.52637;93993.91;;;;
2019/04/06 05:26:20;;;;;;;53.4;28.84999;;;;;;;6.12;71.52637;93993.91;;;;
2019/04/06 05:27:21;;;;;;;53.4;28.84999;;;;;;;6.12;71.52637;93993.91;;;;
2019/04/06 05:28:22;;;;;;;49.74999;27.45;;;;;;;6.31;71.52734;94000.57;;;;
2019/04/06 05:29:23;;;;;;;49.74999;27.45;;;;;;;6.31;71.52734;94000.57;;;;
2019/04/06 05:30:25;;;;;;;49.74999;27.45;;;;;;;6.31;71.52734;94000.57;;;;
2019/04/06 05:31:26;;;;;;;49.74999;27.45;;;;;;;6.31;71.52734;94000.57;;;;
2019/04/06 05:32:27;;;;;;;49.74999;27.45;;;;;;;6.31;71.52734;94000.57;;;;
2019/04/06 05:33:28;;;;;;;49.74999;27.45;;;;;;;6.31;71.52734;94000.57;;;;
2019/04/06 05:34:29;;;;;;;49.74999;27.45;;;;;;;6.31;71.52734;94000.57;;;;
2019/04/06 05:35:30;;;;;;;49.74999;27.45;;;;;;;6.31;71.52734;94000.57;;;;
2019/04/06 05:36:31;;;;;;;49.74999;27.45;;;;;;;6.31;71.52734;94000.57;;;;
2019/04/06 05:37:33;;;;;;;49.74999;27.45;;;;;;;6.31;71.52734;94000.57;;;;
2019/04/06 05:38:34;;;;;;;50.35;27.55;;;;;;;6.46;71.45605;94000.58;;;;
2019/04/06 05:39:35;;;;;;;50.35;27.55;;;;;;;6.46;71.45605;94000.58;;;;
2019/04/06 05:40:36;;;;;;;50.35;27.55;;;;;;;6.46;71.45605;94000.58;;;;
2019/04/06 05:41:37;;;;;;;50.35;27.55;;;;;;;6.46;71.45605;94000.58;;;;
2019/04/06 05:42:38;;;;;;;50.35;27.55;;;;;;;6.46;71.45605;94000.58;;;;
2019/04/06 05:43:40;;;;;;;50.35;27.55;;;;;;;6.46;71.45605;94000.58;;;;
2019/04/06 05:44:41;;;;;;;50.35;27.55;;;;;;;6.46;71.45605;94000.58;;;;
2019/04/06 05:45:42;;;;;;;50.35;27.55;;;;;;;6.46;71.45605;94000.58;;;;
2019/04/06 05:46:43;;;;;;;50.35;27.55;;;;;;;6.46;71.45605;94000.58;;;;